createdAt,value
2023-02-19T00:01:27.758Z,93.93
2023-02-19T00:03:56.917Z,96.05
2023-02-19T00:06:26.080Z,93.82
2023-02-19T00:08:53.095Z,98.68
2023-02-19T00:11:22.660Z,97.32
2023-02-19T00:13:51.902Z,95.25
2023-02-19T00:16:27.899Z,98.72
2023-02-19T00:18:56.152Z,93.00
2023-02-19T00:21:24.191Z,90.97
2023-02-19T00:23:53.240Z,94.80
2023-02-19T00:26:20.244Z,94.40
2023-02-19T00:28:48.083Z,98.88
2023-02-19T00:31:24.053Z,97.30
2023-02-19T00:33:54.929Z,95.47
2023-02-19T00:36:23.134Z,95.47
2023-02-19T00:38:50.463Z,99.20
2023-02-19T00:41:19.219Z,98.65
2023-02-19T00:43:50.770Z,98.63
2023-02-19T00:46:20.607Z,94.10
2023-02-19T00:48:48.035Z,97.78
2023-02-19T00:51:15.684Z,96.63
2023-02-19T00:53:43.142Z,100.43
2023-02-19T00:56:10.258Z,96.30
2023-02-19T00:58:37.767Z,96.60
2023-02-19T01:01:06.449Z,96.78
2023-02-19T01:03:37.067Z,98.18
2023-02-19T01:06:06.163Z,99.38
2023-02-19T01:08:33.957Z,96.57
2023-02-19T01:11:01.262Z,97.65
2023-02-19T01:13:28.918Z,97.32
2023-02-19T01:16:04.218Z,99.75
2023-02-19T01:18:31.795Z,97.22
2023-02-19T01:20:59.039Z,96.35
2023-02-19T01:23:26.004Z,101.18
2023-02-19T01:25:52.841Z,99.78
2023-02-19T01:28:19.678Z,99.07
2023-02-19T01:30:46.439Z,99.57
2023-02-19T01:33:13.316Z,99.75
2023-02-19T01:35:40.545Z,104.15
2023-02-19T01:38:10.018Z,96.18
2023-02-19T01:40:36.815Z,105.22
2023-02-19T01:43:03.771Z,104.22
2023-02-19T01:45:44.182Z,100.75
2023-02-19T01:48:23.681Z,103.50
2023-02-19T01:51:11.020Z,102.40
2023-02-19T01:53:41.599Z,102.72
2023-02-19T01:56:09.923Z,100.13
2023-02-19T01:58:37.942Z,104.95
2023-02-19T02:01:07.515Z,102.63
2023-02-19T02:03:36.927Z,102.03
2023-02-19T02:06:14.929Z,104.57
2023-02-19T02:09:00.672Z,106.25
2023-02-19T02:11:28.735Z,103.47
2023-02-19T02:13:56.083Z,102.75
2023-02-19T02:16:40.970Z,104.30
2023-02-19T02:19:28.148Z,102.10
2023-02-19T02:22:07.757Z,101.63
2023-02-19T02:25:10.837Z,102.07
2023-02-19T02:27:49.631Z,101.32
2023-02-19T02:30:37.526Z,103.25
2023-02-19T02:33:23.050Z,100.07
2023-02-19T02:35:54.924Z,102.68
2023-02-19T02:38:25.847Z,98.57
2023-02-19T02:40:54.012Z,98.78
2023-02-19T02:43:20.883Z,102.07
2023-02-19T02:45:48.078Z,98.40
2023-02-19T02:48:23.874Z,98.22
2023-02-19T02:50:54.909Z,99.78
2023-02-19T02:54:01.992Z,102.50
2023-02-19T02:56:30.252Z,96.90
2023-02-19T02:59:00.916Z,96.30
2023-02-19T03:02:03.554Z,95.97
2023-02-19T03:04:58.328Z,97.25
2023-02-19T03:07:29.921Z,95.45
2023-02-19T03:10:00.598Z,93.82
2023-02-19T03:12:48.971Z,97.65
2023-02-19T03:15:36.015Z,96.47
2023-02-19T03:18:25.416Z,98.13
2023-02-19T03:20:56.739Z,96.38
2023-02-19T03:23:48.199Z,99.80
2023-02-19T03:26:17.585Z,95.95
2023-02-19T03:29:04.769Z,99.47
2023-02-19T03:31:33.089Z,97.75
2023-02-19T03:34:04.442Z,96.75
2023-02-19T03:37:00.713Z,95.27
2023-02-19T03:39:27.925Z,98.97
2023-02-19T03:42:09.370Z,97.80
2023-02-19T03:44:45.481Z,96.20
2023-02-19T03:47:18.418Z,97.07
2023-02-19T03:50:03.370Z,96.72
2023-02-19T03:53:05.885Z,97.75
2023-02-19T03:56:01.678Z,97.57
2023-02-19T03:58:34.456Z,99.18
2023-02-19T04:01:39.044Z,101.65
2023-02-19T04:04:31.650Z,99.53
2023-02-19T04:09:30.816Z,98.97
2023-02-19T04:11:58.662Z,100.82
2023-02-19T04:14:29.340Z,101.13
2023-02-19T04:17:06.562Z,103.72
2023-02-19T04:19:37.037Z,106.75
2023-02-19T04:22:06.623Z,102.95
2023-02-19T04:24:42.852Z,101.82
2023-02-19T04:27:10.356Z,101.25
2023-02-19T04:29:39.094Z,106.00
2023-02-19T04:32:06.418Z,103.95
2023-02-19T04:34:33.526Z,104.65
2023-02-19T04:37:00.367Z,105.10
2023-02-19T04:39:27.159Z,103.32
2023-02-19T04:41:53.948Z,103.38
2023-02-19T04:44:21.383Z,104.68
2023-02-19T04:46:48.256Z,103.60
2023-02-19T04:49:15.050Z,99.32
2023-02-19T04:51:41.954Z,102.70
2023-02-19T04:54:08.973Z,100.40
2023-02-19T04:56:35.761Z,102.25
2023-02-19T04:59:03.250Z,101.80
2023-02-19T05:01:30.115Z,100.60
2023-02-19T05:03:56.947Z,95.00
2023-02-19T05:06:23.730Z,101.10
2023-02-19T05:08:50.552Z,99.57
2023-02-19T05:11:17.363Z,101.38
2023-02-19T05:13:44.272Z,99.82
2023-02-19T05:16:15.846Z,101.28
2023-02-19T05:18:44.552Z,99.10
2023-02-19T05:21:12.187Z,101.93
2023-02-19T05:23:39.458Z,101.07
2023-02-19T05:26:08.807Z,100.05
2023-02-19T05:28:35.757Z,100.25
2023-02-19T05:31:08.905Z,102.00
2023-02-19T05:33:36.973Z,101.03
2023-02-19T05:36:09.329Z,100.57
2023-02-19T05:38:37.279Z,100.05
2023-02-19T05:41:25.106Z,99.07
2023-02-19T05:43:52.256Z,99.82
2023-02-19T05:46:22.487Z,97.13
2023-02-19T05:48:51.086Z,98.55
2023-02-19T05:51:20.347Z,95.88
2023-02-19T05:53:48.141Z,98.65
2023-02-19T05:56:39.474Z,99.75
2023-02-19T05:59:14.988Z,102.65
2023-02-19T06:01:42.121Z,101.57
2023-02-19T06:04:10.891Z,99.57
2023-02-19T06:06:38.401Z,103.68
2023-02-19T06:09:06.360Z,101.32
2023-02-19T06:11:33.616Z,105.72
2023-02-19T06:14:00.752Z,104.20
2023-02-19T06:16:27.847Z,102.15
2023-02-19T06:18:54.863Z,103.88
2023-02-19T06:21:21.600Z,106.88
2023-02-19T06:23:48.471Z,107.00
2023-02-19T06:26:18.002Z,104.47
2023-02-19T06:28:45.707Z,105.88
2023-02-19T06:31:13.389Z,104.32
2023-02-19T06:33:41.136Z,114.95
2023-02-19T06:36:12.857Z,119.85
2023-02-19T06:38:40.017Z,120.38
2023-02-19T06:41:08.578Z,118.80
2023-02-19T06:43:36.003Z,117.90
2023-02-19T06:46:04.898Z,112.70
2023-02-19T06:48:32.551Z,111.60
2023-02-19T06:50:59.616Z,100.50
2023-02-19T06:53:26.696Z,99.85
2023-02-19T06:56:06.044Z,95.78
2023-02-19T06:58:33.852Z,96.15
2023-02-19T07:01:00.864Z,95.85
2023-02-19T07:03:27.775Z,94.90
2023-02-19T07:05:54.846Z,95.80
2023-02-19T07:08:21.880Z,94.78
2023-02-19T07:10:59.195Z,95.78
2023-02-19T07:13:26.966Z,99.93
2023-02-19T07:16:07.977Z,99.47
2023-02-19T07:18:35.579Z,99.82
2023-02-19T07:21:13.813Z,102.68
2023-02-19T07:23:41.501Z,103.45
2023-02-19T07:26:16.921Z,100.78
2023-02-19T07:28:44.953Z,104.20
2023-02-19T07:31:12.861Z,103.30
2023-02-19T07:33:39.890Z,103.20
2023-02-19T07:36:07.898Z,103.90
2023-02-19T07:38:34.900Z,104.43
2023-02-19T07:41:03.790Z,105.97
2023-02-19T07:43:32.866Z,107.38
2023-02-19T07:46:03.563Z,104.38
2023-02-19T07:48:30.389Z,109.53
2023-02-19T07:50:59.431Z,109.10
2023-02-19T07:53:27.438Z,109.93
2023-02-19T07:55:58.597Z,107.00
2023-02-19T07:58:25.561Z,104.30
2023-02-19T08:00:52.485Z,104.63
2023-02-19T08:03:19.463Z,102.40
2023-02-19T08:05:46.393Z,103.65
2023-02-19T08:08:14.741Z,102.07
2023-02-19T08:11:00.870Z,104.90
2023-02-19T08:13:30.885Z,102.15
2023-02-19T08:16:17.062Z,100.55
2023-02-19T08:18:48.320Z,103.55
2023-02-19T08:21:18.197Z,103.82
2023-02-19T08:23:46.586Z,98.65
2023-02-19T08:26:13.744Z,104.07
2023-02-19T08:28:40.881Z,101.35
2023-02-19T08:31:09.724Z,102.10
2023-02-19T08:33:37.472Z,102.43
2023-02-19T08:36:06.929Z,103.80
2023-02-19T08:38:35.927Z,100.80
2023-02-19T08:41:09.145Z,97.07
2023-02-19T08:43:36.938Z,100.05
2023-02-19T08:46:04.197Z,100.13
2023-02-19T08:48:30.971Z,98.75
2023-02-19T08:51:07.177Z,97.85
2023-02-19T08:53:35.820Z,96.90
2023-02-19T08:56:07.163Z,96.07
2023-02-19T08:58:34.087Z,94.93
2023-02-19T09:01:00.973Z,96.82
2023-02-19T09:03:28.018Z,94.28
2023-02-19T09:05:54.839Z,90.78
2023-02-19T09:08:21.725Z,91.20
2023-02-19T09:11:01.458Z,91.95
2023-02-19T09:13:28.442Z,88.78
2023-02-19T09:15:57.103Z,86.55
2023-02-19T09:18:25.407Z,84.22
2023-02-19T09:20:52.543Z,88.32
2023-02-19T09:23:19.643Z,86.97
2023-02-19T09:25:46.594Z,85.18
2023-02-19T09:28:13.425Z,87.82
2023-02-19T09:30:40.402Z,88.85
2023-02-19T09:33:07.525Z,88.65
2023-02-19T09:35:34.287Z,89.30
2023-02-19T09:38:02.115Z,91.65
2023-02-19T09:40:30.659Z,91.72
2023-02-19T09:42:58.262Z,88.90
2023-02-19T09:45:27.075Z,90.15
2023-02-19T09:47:56.721Z,90.72
2023-02-19T09:50:32.974Z,88.80
2023-02-19T09:53:03.801Z,89.13
2023-02-19T09:55:39.877Z,87.43
2023-02-19T09:58:18.769Z,88.32
2023-02-19T10:00:49.232Z,89.10
2023-02-19T10:03:30.625Z,88.35
2023-02-19T10:06:06.250Z,89.30
2023-02-19T10:08:35.760Z,89.88
2023-02-19T10:11:04.967Z,89.95
2023-02-19T10:14:12.798Z,88.32
2023-02-19T10:16:45.847Z,87.28
2023-02-19T10:19:16.556Z,90.50
2023-02-19T10:21:44.127Z,88.50
2023-02-19T10:24:25.739Z,89.68
2023-02-19T10:26:52.989Z,90.32
2023-02-19T10:29:21.992Z,89.40
2023-02-19T10:31:49.101Z,91.43
2023-02-19T10:34:22.187Z,93.28
2023-02-19T10:36:53.748Z,89.68
2023-02-19T10:39:38.205Z,93.47
2023-02-19T10:42:05.387Z,91.40
2023-02-19T10:44:42.177Z,90.68
2023-02-19T10:47:17.173Z,92.85
2023-02-19T10:49:46.437Z,91.15
2023-02-19T10:52:21.583Z,87.35
2023-02-19T10:55:15.582Z,88.85
2023-02-19T10:57:42.788Z,84.65
2023-02-19T11:00:15.627Z,91.50
2023-02-19T11:02:44.088Z,91.65
2023-02-19T11:05:16.876Z,91.40
2023-02-19T11:07:48.715Z,91.80
2023-02-19T11:10:24.292Z,88.70
2023-02-19T11:12:52.808Z,92.15
2023-02-19T11:15:27.599Z,91.20
2023-02-19T11:17:56.819Z,103.30
2023-02-19T11:20:24.335Z,91.13
2023-02-19T11:22:51.360Z,89.75
2023-02-19T11:25:21.548Z,88.25
2023-02-19T11:28:08.230Z,89.13
2023-02-19T11:30:39.015Z,91.57
2023-02-19T11:33:15.071Z,93.78
2023-02-19T11:35:45.322Z,89.13
2023-02-19T11:38:14.495Z,88.95
2023-02-19T11:40:54.083Z,91.50
2023-02-19T11:43:55.025Z,90.45
2023-02-19T11:46:41.415Z,87.80
2023-02-19T11:49:20.203Z,90.22
2023-02-19T11:52:20.817Z,90.78
2023-02-19T11:54:52.726Z,87.10
2023-02-19T11:57:37.909Z,86.95
2023-02-19T12:00:24.785Z,89.40
2023-02-19T12:03:12.579Z,89.70
2023-02-19T12:05:42.234Z,89.30
2023-02-19T12:08:37.848Z,91.47
2023-02-19T12:11:10.765Z,91.63
2023-02-19T12:14:01.633Z,92.57
2023-02-19T12:17:18.959Z,90.28
2023-02-19T12:19:56.319Z,88.95
2023-02-19T12:22:32.267Z,89.10
2023-02-19T12:25:33.440Z,86.15
2023-02-19T12:28:19.090Z,86.97
2023-02-19T12:31:02.524Z,85.75
2023-02-19T12:33:53.545Z,89.00
2023-02-19T12:36:50.836Z,91.45
2023-02-19T12:39:23.757Z,88.93
2023-02-19T12:42:11.772Z,86.55
2023-02-19T12:44:47.557Z,84.70
2023-02-19T12:47:24.846Z,88.38
2023-02-19T12:50:25.214Z,85.70
2023-02-19T12:53:10.672Z,84.80
2023-02-19T12:55:44.555Z,84.95
2023-02-19T12:58:26.488Z,84.78
2023-02-19T13:00:59.035Z,82.18
2023-02-19T13:03:49.262Z,84.18
2023-02-19T13:06:42.263Z,84.30
2023-02-19T13:09:29.228Z,83.70
2023-02-19T13:12:05.648Z,80.10
2023-02-19T13:14:34.850Z,83.72
2023-02-19T13:17:24.159Z,83.30
2023-02-19T13:19:57.516Z,80.85
2023-02-19T13:22:52.135Z,81.93
2023-02-19T13:25:20.413Z,80.10
2023-02-19T13:27:54.947Z,83.00
2023-02-19T13:30:26.392Z,83.47
2023-02-19T13:33:11.971Z,79.43
2023-02-19T13:36:01.412Z,80.28
2023-02-19T13:38:28.577Z,79.65
2023-02-19T13:41:00.380Z,80.28
2023-02-19T13:43:29.694Z,76.97
2023-02-19T13:46:09.150Z,77.60
2023-02-19T13:48:38.494Z,78.00
2023-02-19T13:51:26.262Z,74.85
2023-02-19T13:53:56.020Z,77.10
2023-02-19T13:56:33.906Z,73.40
2023-02-19T13:59:24.904Z,73.57
2023-02-19T14:01:51.759Z,70.35
2023-02-19T14:04:48.442Z,74.30
2023-02-19T14:07:15.231Z,69.43
2023-02-19T14:09:44.639Z,67.15
2023-02-19T14:12:16.089Z,66.97
2023-02-19T14:14:54.288Z,68.72
2023-02-19T14:17:36.026Z,64.85
2023-02-19T14:20:24.069Z,68.45
2023-02-19T14:23:01.550Z,66.40
2023-02-19T14:25:29.270Z,67.28
2023-02-19T14:28:04.332Z,67.25
2023-02-19T14:30:34.801Z,68.57
2023-02-19T14:33:10.639Z,69.07
2023-02-19T14:35:42.567Z,65.65
2023-02-19T14:38:35.970Z,69.47
2023-02-19T14:41:03.514Z,66.80
2023-02-19T14:43:31.211Z,69.95
2023-02-19T14:46:18.378Z,68.63
2023-02-19T14:48:49.204Z,68.50
2023-02-19T14:51:39.104Z,68.80
2023-02-19T14:54:35.805Z,68.90
2023-02-19T14:57:05.419Z,66.75
2023-02-19T14:59:32.393Z,69.03
2023-02-19T15:02:04.197Z,68.25
2023-02-19T15:04:36.622Z,69.72
2023-02-19T15:07:08.311Z,67.85
2023-02-19T15:09:42.908Z,66.63
2023-02-19T15:12:25.669Z,67.20
2023-02-19T15:14:55.978Z,67.97
2023-02-19T15:17:27.649Z,67.28
2023-02-19T15:19:56.087Z,69.15
2023-02-19T15:22:28.564Z,65.60
2023-02-19T15:24:55.817Z,68.10
2023-02-19T15:27:25.023Z,66.63
2023-02-19T15:29:53.712Z,68.93
2023-02-19T15:32:27.288Z,69.45
2023-02-19T15:35:04.991Z,72.93
2023-02-19T15:37:35.771Z,69.13
2023-02-19T15:40:07.685Z,74.22
2023-02-19T15:42:37.110Z,73.00
2023-02-19T15:45:27.676Z,71.97
2023-02-19T15:48:23.673Z,72.85
2023-02-19T15:51:08.236Z,72.78
2023-02-19T15:53:41.326Z,72.88
2023-02-19T15:56:15.793Z,73.38
2023-02-19T15:58:52.393Z,75.15
2023-02-19T16:01:29.283Z,70.78
2023-02-19T16:03:57.294Z,73.85
2023-02-19T16:06:25.709Z,73.72
2023-02-19T16:08:52.440Z,76.18
2023-02-19T16:11:37.703Z,77.78
2023-02-19T16:14:34.220Z,74.93
2023-02-19T16:17:13.077Z,73.55
2023-02-19T16:20:01.472Z,76.05
2023-02-19T16:22:39.974Z,73.65
2023-02-19T16:25:07.974Z,76.30
2023-02-19T16:27:37.347Z,77.82
2023-02-19T16:30:17.119Z,78.75
2023-02-19T16:32:46.857Z,75.07
2023-02-19T16:35:42.596Z,79.60
2023-02-19T16:38:17.115Z,76.13
2023-02-19T16:40:53.217Z,76.28
2023-02-19T16:43:40.570Z,78.45
2023-02-19T16:46:10.958Z,80.80
2023-02-19T16:48:38.092Z,79.03
2023-02-19T16:51:09.600Z,80.13
2023-02-19T16:53:36.955Z,77.13
2023-02-19T16:56:03.964Z,82.18
2023-02-19T16:58:30.731Z,83.55
2023-02-19T17:00:57.694Z,83.07
2023-02-19T17:03:25.624Z,85.18
2023-02-19T17:05:53.080Z,83.53
2023-02-19T17:08:26.814Z,86.50
2023-02-19T17:10:55.863Z,87.55
2023-02-19T17:13:23.100Z,85.85
2023-02-19T17:15:50.089Z,87.47
2023-02-19T17:18:17.067Z,88.15
2023-02-19T17:20:49.895Z,85.95
2023-02-19T17:23:16.742Z,88.10
2023-02-19T17:25:43.671Z,90.05
2023-02-19T17:28:10.424Z,88.53
2023-02-19T17:30:39.835Z,87.28
2023-02-19T17:33:06.919Z,86.35
2023-02-19T17:35:34.230Z,91.53
2023-02-19T17:38:01.053Z,90.10
2023-02-19T17:40:33.488Z,85.72
2023-02-19T17:43:01.414Z,87.57
2023-02-19T17:45:28.684Z,83.50
2023-02-19T17:47:55.624Z,83.47
2023-02-19T17:50:27.620Z,89.63
2023-02-19T17:52:54.419Z,81.82
2023-02-19T17:55:21.539Z,86.43
2023-02-19T17:57:50.412Z,86.97
2023-02-19T18:00:22.407Z,85.75
2023-02-19T18:02:49.497Z,87.18
2023-02-19T18:05:17.226Z,100.88
2023-02-19T18:07:44.996Z,85.53
2023-02-19T18:10:12.672Z,76.90
2023-02-19T18:12:39.962Z,84.28
2023-02-19T18:15:08.860Z,86.75
2023-02-19T18:17:35.743Z,81.70
2023-02-19T18:20:04.658Z,81.00
2023-02-19T18:22:32.350Z,79.40
2023-02-19T18:24:59.225Z,80.88
2023-02-19T18:27:26.116Z,80.38
2023-02-19T18:29:56.428Z,86.38
2023-02-19T18:32:24.652Z,90.22
2023-02-19T18:34:53.211Z,76.68
2023-02-19T18:37:20.890Z,82.90
2023-02-19T18:39:47.999Z,81.38
2023-02-19T18:42:15.578Z,80.57
2023-02-19T18:44:43.586Z,76.40
2023-02-19T18:47:11.530Z,83.97
2023-02-19T18:49:38.745Z,72.53
2023-02-19T18:52:06.100Z,76.60
2023-02-19T18:54:33.376Z,79.10
2023-02-19T18:57:01.845Z,75.13
2023-02-19T18:59:28.666Z,75.97
2023-02-19T19:01:55.479Z,75.15
2023-02-19T19:04:22.448Z,74.55
2023-02-19T19:06:49.407Z,78.63
2023-02-19T19:09:16.388Z,75.38
2023-02-19T19:11:44.384Z,72.45
2023-02-19T19:14:11.223Z,73.28
2023-02-19T19:16:38.087Z,75.88
2023-02-19T19:19:04.966Z,78.30
2023-02-19T19:21:31.845Z,69.30
2023-02-19T19:23:58.642Z,71.47
2023-02-19T19:26:25.793Z,65.53
2023-02-19T19:28:52.606Z,68.53
2023-02-19T19:31:21.027Z,69.53
2023-02-19T19:33:48.928Z,74.25
2023-02-19T19:36:20.233Z,81.57
2023-02-19T19:38:48.038Z,85.83
2023-02-19T19:41:19.496Z,72.20
2023-02-19T19:43:47.048Z,78.03
2023-02-19T19:46:18.955Z,68.15
2023-02-19T19:48:47.838Z,73.60
2023-02-19T19:51:15.427Z,70.15
2023-02-19T19:53:42.329Z,75.47
2023-02-19T19:56:09.397Z,75.72
2023-02-19T19:58:37.435Z,75.70
2023-02-19T20:01:05.958Z,74.45
2023-02-19T20:03:33.778Z,75.35
2023-02-19T20:06:00.721Z,72.40
2023-02-19T20:08:27.575Z,73.68
2023-02-19T20:10:54.420Z,82.80
2023-02-19T20:13:26.488Z,80.50
2023-02-19T20:15:53.400Z,74.80
2023-02-19T20:18:21.575Z,72.80
2023-02-19T20:20:48.471Z,72.03
2023-02-19T20:23:15.270Z,75.00
2023-02-19T20:25:42.018Z,74.20
2023-02-19T20:28:08.800Z,71.60
2023-02-19T20:30:37.234Z,73.95
2023-02-19T20:33:04.591Z,76.43
2023-02-19T20:35:31.960Z,77.35
2023-02-19T20:37:58.800Z,73.28
2023-02-19T20:40:27.825Z,76.22
2023-02-19T20:42:54.670Z,75.22
2023-02-19T20:45:22.079Z,78.03
2023-02-19T20:47:48.973Z,80.28
2023-02-19T20:50:18.608Z,79.82
2023-02-19T20:52:46.621Z,78.63
2023-02-19T20:55:13.453Z,80.68
2023-02-19T20:57:40.212Z,79.72
2023-02-19T21:00:08.784Z,78.65
2023-02-19T21:02:35.650Z,80.60
2023-02-19T21:05:02.849Z,80.22
2023-02-19T21:07:30.791Z,79.05
2023-02-19T21:09:57.604Z,79.93
2023-02-19T21:12:24.435Z,80.95
2023-02-19T21:14:51.284Z,80.43
2023-02-19T21:17:18.074Z,77.88
2023-02-19T21:19:46.314Z,77.28
2023-02-19T21:22:13.387Z,81.00
2023-02-19T21:24:40.195Z,78.75
2023-02-19T21:27:07.168Z,81.18
2023-02-19T21:29:33.989Z,83.55
2023-02-19T21:32:01.245Z,87.05
2023-02-19T21:34:29.497Z,78.45
2023-02-19T21:36:56.913Z,82.20
2023-02-19T21:39:25.436Z,78.53
2023-02-19T21:41:52.445Z,81.75
2023-02-19T21:44:21.463Z,82.32
2023-02-19T21:46:48.854Z,82.68
2023-02-19T21:49:15.690Z,85.57
2023-02-19T21:51:44.886Z,84.95
2023-02-19T21:54:16.791Z,86.13
2023-02-19T21:56:43.860Z,87.53
2023-02-19T21:59:10.823Z,88.05
2023-02-19T22:01:43.224Z,88.80
2023-02-19T22:04:15.227Z,87.93
2023-02-19T22:06:42.178Z,87.88
2023-02-19T22:09:10.693Z,89.30
2023-02-19T22:11:37.508Z,88.80
2023-02-19T22:14:05.415Z,89.50
2023-02-19T22:16:32.401Z,91.38
2023-02-19T22:19:00.140Z,89.00
2023-02-19T22:21:32.222Z,91.63
2023-02-19T22:23:59.649Z,89.43
2023-02-19T22:26:29.974Z,89.88
2023-02-19T22:28:58.286Z,87.63
2023-02-19T22:31:26.612Z,90.82
2023-02-19T22:33:54.212Z,91.53
2023-02-19T22:36:24.211Z,89.85
2023-02-19T22:38:51.215Z,89.68
2023-02-19T22:41:19.033Z,89.38
2023-02-19T22:43:46.006Z,94.57
2023-02-19T22:46:18.133Z,93.72
2023-02-19T22:51:14.132Z,88.00
2023-02-19T22:54:00.134Z,92.72
2023-02-19T22:56:28.300Z,90.85
2023-02-19T22:58:56.797Z,89.95
2023-02-19T23:01:24.450Z,92.07
2023-02-19T23:03:58.629Z,91.90
2023-02-19T23:06:33.422Z,91.57
2023-02-19T23:09:06.831Z,88.20
2023-02-19T23:11:37.231Z,90.65
2023-02-19T23:14:04.259Z,91.07
2023-02-19T23:16:35.697Z,90.53
2023-02-19T23:19:03.769Z,94.18
2023-02-19T23:21:31.023Z,88.78
2023-02-19T23:23:57.838Z,91.88
2023-02-19T23:26:25.014Z,91.70
2023-02-19T23:28:51.850Z,91.07
2023-02-19T23:31:19.426Z,92.38
2023-02-19T23:33:46.265Z,94.00
2023-02-19T23:36:14.805Z,94.30
2023-02-19T23:38:44.924Z,92.10
2023-02-19T23:41:14.952Z,92.00
2023-02-19T23:43:42.111Z,90.30
2023-02-19T23:46:09.450Z,87.75
2023-02-19T23:48:36.219Z,90.85
2023-02-19T23:51:03.159Z,92.25
2023-02-19T23:53:29.887Z,91.88
2023-02-19T23:55:56.924Z,91.47
2023-02-19T23:58:23.804Z,93.30
